createdAt,value
2022-11-09T00:00:11.631Z,20.03
2022-11-09T00:02:43.711Z,20.02
2022-11-09T00:05:10.535Z,19.98
2022-11-09T00:07:37.897Z,20.01
2022-11-09T00:10:04.405Z,19.99
2022-11-09T00:12:31.797Z,20.00
2022-11-09T00:14:58.258Z,19.96
2022-11-09T00:17:25.644Z,19.95
2022-11-09T00:19:52.088Z,19.95
2022-11-09T00:22:18.564Z,19.97
2022-11-09T00:24:45.946Z,19.89
2022-11-09T00:27:17.334Z,19.92
2022-11-09T00:29:45.063Z,19.86
2022-11-09T00:32:11.523Z,19.88
2022-11-09T00:34:37.963Z,19.86
2022-11-09T00:37:04.407Z,19.85
2022-11-09T00:39:31.772Z,19.83
2022-11-09T00:41:59.136Z,19.86
2022-11-09T00:44:25.618Z,19.85
2022-11-09T00:46:52.060Z,19.86
2022-11-09T00:49:18.503Z,19.81
2022-11-09T00:51:44.905Z,19.86
2022-11-09T00:54:11.328Z,19.83
2022-11-09T00:56:37.771Z,19.83
2022-11-09T00:59:05.146Z,19.81
2022-11-09T01:01:32.577Z,19.82
2022-11-09T01:03:59.975Z,19.80
2022-11-09T01:06:26.524Z,19.76
2022-11-09T01:08:54.001Z,19.88
2022-11-09T01:11:21.430Z,19.73
2022-11-09T01:16:33.688Z,19.80
2022-11-09T01:19:00.151Z,19.77
2022-11-09T01:21:26.609Z,19.79
2022-11-09T01:23:53.064Z,19.80
2022-11-09T01:26:19.524Z,19.77
2022-11-09T01:31:42.039Z,19.75
2022-11-09T01:34:08.493Z,19.74
2022-11-09T01:36:34.937Z,19.74
2022-11-09T01:39:01.377Z,19.76
2022-11-09T01:41:27.808Z,19.78
2022-11-09T01:46:49.955Z,19.76
2022-11-09T01:49:17.399Z,19.76
2022-11-09T01:51:44.754Z,19.77
2022-11-09T01:54:11.189Z,19.75
2022-11-09T01:56:38.532Z,19.75
2022-11-09T02:01:49.671Z,19.69
2022-11-09T02:04:16.097Z,19.71
2022-11-09T02:06:43.525Z,19.73
2022-11-09T02:09:10.901Z,19.70
2022-11-09T02:11:38.280Z,19.71
2022-11-09T02:16:49.407Z,19.71
2022-11-09T02:19:16.767Z,19.71
2022-11-09T02:21:43.220Z,19.68
2022-11-09T02:24:10.590Z,19.68
2022-11-09T02:26:37.026Z,19.70
2022-11-09T02:31:47.230Z,19.70
2022-11-09T02:34:14.598Z,19.70
2022-11-09T02:36:41.982Z,19.67
2022-11-09T02:39:08.464Z,19.66
2022-11-09T02:41:34.904Z,19.64
2022-11-09T02:46:57.122Z,19.64
2022-11-09T02:49:23.554Z,19.63
2022-11-09T02:51:51.088Z,19.65
2022-11-09T02:54:18.470Z,19.60
2022-11-09T02:56:44.905Z,19.63
2022-11-09T03:02:05.229Z,19.61
2022-11-09T03:04:31.692Z,19.63
2022-11-09T03:06:59.131Z,19.56
2022-11-09T03:09:26.545Z,19.43
2022-11-09T03:11:52.993Z,19.34
2022-11-09T03:17:13.253Z,19.32
2022-11-09T03:19:40.645Z,19.26
2022-11-09T03:22:08.036Z,19.29
2022-11-09T03:24:34.559Z,19.20
2022-11-09T03:27:01.010Z,19.21
2022-11-09T03:32:12.534Z,19.18
2022-11-09T03:34:38.974Z,19.16
2022-11-09T03:37:06.407Z,19.15
2022-11-09T03:39:32.858Z,19.19
2022-11-09T03:41:59.374Z,19.18
2022-11-09T03:47:09.792Z,19.16
2022-11-09T03:49:36.253Z,19.15
2022-11-09T03:52:03.687Z,19.16
2022-11-09T03:54:31.100Z,19.11
2022-11-09T03:56:57.533Z,19.11
2022-11-09T04:02:18.754Z,19.10
2022-11-09T04:04:46.118Z,19.11
2022-11-09T04:07:13.586Z,19.05
2022-11-09T04:09:40.076Z,19.09
2022-11-09T04:12:07.451Z,19.02
2022-11-09T04:17:28.700Z,19.01
2022-11-09T04:19:56.158Z,19.02
2022-11-09T04:22:22.641Z,19.01
2022-11-09T04:24:50.017Z,19.05
2022-11-09T04:27:17.385Z,19.12
2022-11-09T04:32:29.851Z,19.17
2022-11-09T04:34:57.234Z,19.13
2022-11-09T04:37:24.676Z,19.15
2022-11-09T04:39:51.129Z,19.09
2022-11-09T04:42:17.663Z,19.06
2022-11-09T04:47:29.270Z,19.10
2022-11-09T04:49:56.628Z,19.07
2022-11-09T04:52:24.021Z,19.05
2022-11-09T04:54:50.477Z,19.00
2022-11-09T04:57:16.928Z,18.99
2022-11-09T05:02:39.418Z,18.93
2022-11-09T05:05:06.898Z,18.94
2022-11-09T05:07:33.223Z,18.96
2022-11-09T05:09:59.679Z,18.93
2022-11-09T05:12:26.128Z,18.90
2022-11-09T05:17:36.470Z,18.93
2022-11-09T05:20:02.940Z,18.96
2022-11-09T05:22:29.399Z,18.94
2022-11-09T05:24:55.855Z,18.97
2022-11-09T05:27:23.232Z,18.95
2022-11-09T05:32:45.690Z,18.71
2022-11-09T05:35:13.048Z,18.78
2022-11-09T05:37:39.495Z,18.77
2022-11-09T05:40:06.898Z,18.78
2022-11-09T05:42:33.342Z,18.74
2022-11-09T05:47:54.621Z,18.84
2022-11-09T05:50:22.085Z,18.84
2022-11-09T05:52:49.512Z,18.81
2022-11-09T05:55:15.942Z,18.81
2022-11-09T05:57:42.456Z,18.87
2022-11-09T06:02:53.965Z,18.89
2022-11-09T06:05:20.423Z,18.86
2022-11-09T06:07:47.214Z,18.89
2022-11-09T06:10:13.719Z,18.84
2022-11-09T06:12:41.116Z,18.81
2022-11-09T06:17:51.444Z,18.83
2022-11-09T06:20:18.824Z,18.82
2022-11-09T06:22:45.256Z,18.86
2022-11-09T06:25:12.044Z,18.82
2022-11-09T06:27:39.676Z,18.86
2022-11-09T06:33:02.452Z,18.87
2022-11-09T06:35:30.182Z,18.84
2022-11-09T06:37:56.888Z,18.83
2022-11-09T06:40:24.606Z,18.80
2022-11-09T06:42:51.099Z,18.80
2022-11-09T06:48:12.454Z,18.81
2022-11-09T06:50:38.899Z,18.87
2022-11-09T06:53:06.322Z,18.86
2022-11-09T06:55:33.694Z,18.85
2022-11-09T06:58:01.113Z,18.85
2022-11-09T07:03:22.606Z,18.87
2022-11-09T07:05:50.370Z,18.84
2022-11-09T07:08:16.821Z,18.83
2022-11-09T07:10:44.253Z,18.82
2022-11-09T07:13:11.652Z,18.80
2022-11-09T07:18:23.159Z,18.80
2022-11-09T07:20:49.600Z,18.86
2022-11-09T07:23:17.090Z,18.89
2022-11-09T07:25:43.627Z,18.88
2022-11-09T07:28:11.002Z,18.80
2022-11-09T07:33:33.086Z,18.79
2022-11-09T07:35:59.626Z,18.77
2022-11-09T07:38:26.084Z,18.78
2022-11-09T07:40:53.485Z,18.73
2022-11-09T07:43:20.319Z,18.71
2022-11-09T07:48:31.901Z,18.75
2022-11-09T07:50:59.290Z,18.84
2022-11-09T07:53:25.781Z,18.87
2022-11-09T07:55:52.267Z,18.84
2022-11-09T07:58:19.635Z,18.83
2022-11-09T08:03:31.208Z,18.88
2022-11-09T08:05:58.524Z,18.90
2022-11-09T08:08:25.010Z,18.95
2022-11-09T08:10:51.530Z,18.98
2022-11-09T08:13:19.234Z,18.97
2022-11-09T08:18:29.715Z,19.00
2022-11-09T08:20:57.085Z,19.01
2022-11-09T08:23:23.544Z,18.95
2022-11-09T08:25:49.985Z,18.98
2022-11-09T08:28:16.519Z,18.98
2022-11-09T08:33:38.081Z,18.86
2022-11-09T08:36:04.538Z,18.82
2022-11-09T08:38:31.004Z,18.87
2022-11-09T08:40:57.486Z,18.86
2022-11-09T08:43:23.946Z,18.84
2022-11-09T08:48:44.181Z,18.87
2022-11-09T08:51:11.604Z,18.88
2022-11-09T08:53:38.027Z,19.12
2022-11-09T08:56:05.434Z,19.49
2022-11-09T08:58:32.808Z,19.77
2022-11-09T09:03:53.984Z,20.13
2022-11-09T09:06:20.436Z,20.49
2022-11-09T09:08:47.819Z,20.44
2022-11-09T09:11:14.322Z,20.79
2022-11-09T09:13:43.551Z,20.53
2022-11-09T09:18:54.569Z,19.86
2022-11-09T09:21:22.009Z,19.91
2022-11-09T09:23:48.452Z,20.04
2022-11-09T09:26:15.810Z,20.48
2022-11-09T09:28:42.327Z,23.25
2022-11-09T09:33:53.917Z,20.44
2022-11-09T09:36:20.366Z,20.32
2022-11-09T09:38:47.805Z,20.45
2022-11-09T09:41:15.150Z,20.13
2022-11-09T09:43:43.275Z,20.11
2022-11-09T09:49:05.078Z,20.05
2022-11-09T09:51:31.542Z,20.00
2022-11-09T09:53:58.001Z,20.33
2022-11-09T09:56:24.498Z,20.12
2022-11-09T09:58:50.941Z,20.29
2022-11-09T10:04:12.474Z,20.22
2022-11-09T10:06:38.998Z,20.13
2022-11-09T10:09:05.512Z,19.81
2022-11-09T10:11:32.000Z,19.72
2022-11-09T10:13:58.446Z,19.70
2022-11-09T10:19:09.106Z,19.62
2022-11-09T10:21:36.474Z,19.59
2022-11-09T10:24:03.906Z,19.57
2022-11-09T10:26:31.275Z,19.59
2022-11-09T10:29:15.643Z,19.59
2022-11-09T10:34:28.956Z,19.58
2022-11-09T10:36:55.473Z,19.60
2022-11-09T10:39:21.986Z,19.53
2022-11-09T10:41:48.451Z,19.54
2022-11-09T10:44:17.633Z,19.58
2022-11-09T10:49:28.429Z,19.58
2022-11-09T10:51:54.897Z,19.64
2022-11-09T10:54:21.353Z,19.63
2022-11-09T10:59:35.174Z,19.63
2022-11-09T11:04:55.465Z,19.57
2022-11-09T11:07:22.020Z,19.59
2022-11-09T11:09:48.589Z,19.58
2022-11-09T11:12:16.019Z,19.58
2022-11-09T11:14:42.513Z,19.59
2022-11-09T11:19:55.116Z,19.62
2022-11-09T11:22:21.581Z,19.62
2022-11-09T11:24:48.068Z,19.62
2022-11-09T11:27:15.446Z,19.60
2022-11-09T11:29:41.934Z,19.58
2022-11-09T11:35:00.303Z,19.63
2022-11-09T11:37:27.700Z,19.65
2022-11-09T11:39:54.248Z,19.63
2022-11-09T11:42:21.882Z,19.58
2022-11-09T11:44:56.742Z,19.55
2022-11-09T11:50:24.459Z,19.54
2022-11-09T11:52:51.871Z,19.59
2022-11-09T11:55:19.277Z,19.64
2022-11-09T11:57:45.758Z,19.65
2022-11-09T12:00:12.215Z,19.67
2022-11-09T12:05:23.390Z,19.71
2022-11-09T12:07:52.290Z,19.59
2022-11-09T12:10:23.591Z,19.50
2022-11-09T12:12:50.051Z,19.47
2022-11-09T12:15:16.520Z,19.39
2022-11-09T12:20:28.308Z,19.39
2022-11-09T12:22:54.779Z,19.37
2022-11-09T12:25:21.258Z,19.38
2022-11-09T12:27:47.726Z,19.41
2022-11-09T12:30:14.209Z,19.42
2022-11-09T12:35:35.566Z,19.52
2022-11-09T12:38:02.974Z,19.49
2022-11-09T12:40:30.381Z,19.51
2022-11-09T12:42:56.831Z,19.54
2022-11-09T12:45:23.293Z,19.50
2022-11-09T12:50:34.651Z,19.56
2022-11-09T12:53:01.136Z,19.55
2022-11-09T12:55:27.583Z,19.56
2022-11-09T12:57:58.223Z,19.56
2022-11-09T13:00:28.055Z,19.56
2022-11-09T13:05:39.370Z,19.50
2022-11-09T13:08:06.757Z,19.51
2022-11-09T13:10:33.211Z,19.53
2022-11-09T13:13:00.607Z,19.57
2022-11-09T13:15:28.013Z,19.49
2022-11-09T13:20:57.762Z,19.34
2022-11-09T13:23:41.544Z,19.31
2022-11-09T13:26:10.757Z,19.23
2022-11-09T13:28:37.166Z,19.29
2022-11-09T13:31:04.558Z,19.26
2022-11-09T13:36:26.090Z,19.23
2022-11-09T13:38:52.593Z,19.21
2022-11-09T13:41:19.032Z,19.18
2022-11-09T13:43:46.281Z,19.19
2022-11-09T13:46:13.959Z,19.19
2022-11-09T13:51:25.573Z,19.17
2022-11-09T13:53:52.965Z,19.16
2022-11-09T13:56:24.721Z,19.17
2022-11-09T13:58:54.443Z,19.14
2022-11-09T14:01:21.814Z,19.13
2022-11-09T14:06:32.716Z,19.14
2022-11-09T14:09:00.089Z,19.11
2022-11-09T14:11:26.760Z,19.16
2022-11-09T14:13:55.989Z,19.13
2022-11-09T14:16:24.366Z,19.09
2022-11-09T14:21:45.865Z,19.13
2022-11-09T14:24:12.323Z,19.12
2022-11-09T14:26:38.778Z,19.13
2022-11-09T14:29:05.258Z,19.14
2022-11-09T14:31:32.640Z,19.12
2022-11-09T14:36:54.679Z,19.16
2022-11-09T14:39:22.094Z,19.17
2022-11-09T14:41:48.834Z,19.17
2022-11-09T14:44:15.298Z,19.19
2022-11-09T14:46:41.752Z,19.22
2022-11-09T14:51:52.406Z,19.26
2022-11-09T14:54:19.788Z,19.26
2022-11-09T14:56:47.210Z,19.27
2022-11-09T14:59:13.691Z,19.26
2022-11-09T15:01:41.888Z,19.28
2022-11-09T15:06:53.302Z,19.29
2022-11-09T15:09:20.007Z,19.30
2022-11-09T15:11:47.461Z,19.27
2022-11-09T15:14:13.985Z,19.32
2022-11-09T15:16:40.442Z,19.29
2022-11-09T15:22:01.909Z,19.27
2022-11-09T15:24:28.394Z,19.27
2022-11-09T15:26:54.853Z,19.27
2022-11-09T15:29:22.242Z,19.27
2022-11-09T15:31:49.660Z,19.31
2022-11-09T15:37:01.218Z,22.21
2022-11-09T15:39:27.699Z,22.29
2022-11-09T15:41:55.035Z,21.59
2022-11-09T15:44:21.471Z,20.63
2022-11-09T15:46:49.096Z,20.25
2022-11-09T15:52:02.595Z,21.72
2022-11-09T15:54:29.308Z,22.02
2022-11-09T15:56:55.755Z,22.16
2022-11-09T15:59:23.247Z,22.24
2022-11-09T16:01:50.736Z,20.74
2022-11-09T16:07:11.153Z,20.84
2022-11-09T16:09:38.759Z,22.07
2022-11-09T16:12:06.262Z,20.76
2022-11-09T16:14:34.008Z,21.08
2022-11-09T16:17:01.486Z,20.48
2022-11-09T16:22:13.802Z,20.70
2022-11-09T16:24:41.181Z,20.52
2022-11-09T16:27:12.777Z,21.54
2022-11-09T16:29:43.573Z,22.48
2022-11-09T16:32:11.182Z,21.73
2022-11-09T16:37:23.293Z,20.75
2022-11-09T16:39:50.117Z,20.60
2022-11-09T16:42:16.652Z,20.33
2022-11-09T16:44:43.159Z,20.31
2022-11-09T16:47:10.089Z,20.10
2022-11-09T16:52:31.923Z,20.00
2022-11-09T16:55:00.452Z,20.29
2022-11-09T16:57:26.917Z,20.08
2022-11-09T16:59:53.387Z,20.42
2022-11-09T17:02:20.899Z,22.18
2022-11-09T17:07:43.087Z,21.33
2022-11-09T17:10:10.311Z,21.43
2022-11-09T17:12:38.626Z,21.09
2022-11-09T17:15:05.907Z,21.93
2022-11-09T17:17:33.322Z,21.87
2022-11-09T17:22:46.226Z,21.42
2022-11-09T17:25:13.870Z,21.41
2022-11-09T17:27:41.380Z,23.00
2022-11-09T17:30:08.169Z,23.11
2022-11-09T17:32:35.586Z,22.63
2022-11-09T17:37:47.130Z,22.44
2022-11-09T17:40:14.610Z,22.76
2022-11-09T17:42:41.092Z,22.90
2022-11-09T17:45:07.583Z,21.43
2022-11-09T17:47:34.983Z,21.01
2022-11-09T17:52:55.717Z,21.25
2022-11-09T17:55:22.224Z,21.04
2022-11-09T17:57:48.727Z,20.95
2022-11-09T18:00:16.692Z,21.10
2022-11-09T18:02:44.076Z,20.93
2022-11-09T18:07:55.438Z,20.75
2022-11-09T18:10:22.079Z,21.32
2022-11-09T18:12:49.483Z,22.33
2022-11-09T18:15:15.970Z,22.83
2022-11-09T18:17:42.441Z,22.31
2022-11-09T18:22:53.773Z,21.94
2022-11-09T18:25:21.145Z,22.49
2022-11-09T18:27:48.571Z,21.39
2022-11-09T18:30:15.067Z,21.24
2022-11-09T18:32:42.689Z,21.39
2022-11-09T18:37:54.897Z,20.66
2022-11-09T18:40:21.374Z,20.60
2022-11-09T18:42:49.199Z,20.59
2022-11-09T18:45:15.707Z,20.57
2022-11-09T18:47:42.607Z,21.30
2022-11-09T18:53:03.156Z,22.06
2022-11-09T18:55:29.655Z,22.77
2022-11-09T18:57:56.216Z,22.38
2022-11-09T19:00:22.673Z,21.16
2022-11-09T19:02:49.327Z,20.81
2022-11-09T19:08:10.578Z,22.79
2022-11-09T19:10:37.365Z,21.41
2022-11-09T19:13:04.807Z,22.64
2022-11-09T19:15:32.237Z,22.62
2022-11-09T19:18:01.532Z,22.63
2022-11-09T19:23:12.178Z,20.74
2022-11-09T19:25:39.586Z,21.48
2022-11-09T19:28:06.964Z,21.80
2022-11-09T19:30:33.436Z,22.31
2022-11-09T19:32:59.910Z,22.39
2022-11-09T19:38:22.247Z,20.86
2022-11-09T19:40:49.133Z,20.79
2022-11-09T19:43:16.553Z,20.92
2022-11-09T19:45:43.001Z,21.03
2022-11-09T19:48:09.488Z,20.96
2022-11-09T19:53:32.018Z,20.98
2022-11-09T19:55:59.102Z,21.00
2022-11-09T19:58:26.491Z,21.40
2022-11-09T20:00:53.888Z,21.27
2022-11-09T20:03:21.290Z,21.20
2022-11-09T20:08:32.625Z,21.31
2022-11-09T20:11:00.032Z,21.17
2022-11-09T20:13:26.547Z,21.24
2022-11-09T20:15:53.042Z,21.29
2022-11-09T20:18:20.789Z,21.55
2022-11-09T20:23:42.484Z,20.63
2022-11-09T20:26:08.985Z,20.48
2022-11-09T20:28:36.369Z,20.38
2022-11-09T20:31:02.834Z,20.35
2022-11-09T20:33:30.233Z,20.37
2022-11-09T20:38:52.444Z,20.32
2022-11-09T20:41:25.057Z,20.30
2022-11-09T20:43:51.926Z,20.29
2022-11-09T20:46:19.360Z,20.28
2022-11-09T20:48:55.045Z,20.31
2022-11-09T20:54:17.187Z,20.34
2022-11-09T20:56:44.589Z,20.96
2022-11-09T20:59:11.960Z,21.27
2022-11-09T21:01:38.665Z,21.36
2022-11-09T21:04:05.161Z,21.39
2022-11-09T21:09:16.630Z,21.01
2022-11-09T21:11:44.001Z,20.95
2022-11-09T21:14:11.831Z,21.02
2022-11-09T21:16:38.288Z,21.05
2022-11-09T21:19:05.708Z,20.99
2022-11-09T21:24:27.130Z,21.75
2022-11-09T21:26:53.710Z,21.50
2022-11-09T21:29:21.112Z,22.01
2022-11-09T21:31:48.516Z,21.98
2022-11-09T21:34:15.898Z,22.22
2022-11-09T21:39:26.219Z,21.54
2022-11-09T21:41:52.692Z,21.84
2022-11-09T21:44:20.093Z,22.18
2022-11-09T21:46:46.583Z,22.82
2022-11-09T21:49:14.179Z,22.65
2022-11-09T21:54:26.863Z,21.90
2022-11-09T21:56:53.582Z,21.52
2022-11-09T21:59:20.979Z,21.34
2022-11-09T22:01:47.524Z,20.87
2022-11-09T22:04:14.925Z,20.78
2022-11-09T22:09:57.815Z,20.75
2022-11-09T22:12:22.694Z,20.68
2022-11-09T22:14:49.180Z,20.63
2022-11-09T22:17:16.573Z,20.56
2022-11-09T22:19:43.951Z,20.56
2022-11-09T22:24:55.247Z,20.50
2022-11-09T22:27:22.656Z,20.44
2022-11-09T22:29:49.122Z,20.35
2022-11-09T22:32:15.570Z,20.35
2022-11-09T22:34:42.967Z,20.39
2022-11-09T22:39:53.582Z,20.39
2022-11-09T22:42:20.047Z,20.31
2022-11-09T22:44:47.445Z,20.31
2022-11-09T22:47:14.838Z,20.24
2022-11-09T22:49:41.258Z,20.22
2022-11-09T22:54:52.016Z,20.25
2022-11-09T22:57:19.396Z,20.25
2022-11-09T22:59:45.869Z,20.19
2022-11-09T23:02:13.262Z,20.20
2022-11-09T23:04:40.656Z,20.21
2022-11-09T23:09:52.047Z,20.18
2022-11-09T23:12:19.448Z,20.13
2022-11-09T23:14:45.931Z,20.11
2022-11-09T23:17:13.341Z,20.11
2022-11-09T23:19:39.792Z,20.09
2022-11-09T23:24:50.236Z,20.13
2022-11-09T23:27:17.653Z,20.06
2022-11-09T23:29:44.095Z,20.10
2022-11-09T23:32:11.496Z,20.11
2022-11-09T23:34:37.952Z,20.03
2022-11-09T23:37:04.503Z,20.07
2022-11-09T23:39:31.894Z,20.03
2022-11-09T23:41:58.352Z,20.06
2022-11-09T23:44:25.739Z,20.05
2022-11-09T23:46:52.191Z,20.10
2022-11-09T23:49:19.590Z,20.02
2022-11-09T23:51:46.057Z,20.05
2022-11-09T23:54:12.510Z,20.05
2022-11-09T23:56:38.983Z,20.02
2022-11-09T23:59:05.488Z,20.05
